sensor_id;sensor_type;location;lat;lon;timestamp;pressure;altitude;pressure_sealevel;temperature;humidity
9439;BME280;5176;42.622;25.386;2023-02-17T00:01:30;98125.38;;;2.29;79.17
9439;BME280;5176;42.622;25.386;2023-02-17T00:03:58;98106.59;;;2.16;79.57
9439;BME280;5176;42.622;25.386;2023-02-17T00:06:27;98117.69;;;2.23;80.19
9439;BME280;5176;42.622;25.386;2023-02-17T00:08:56;98126.31;;;2.24;80.50
9439;BME280;5176;42.622;25.386;2023-02-17T00:11:24;98112.47;;;2.28;79.64
9439;BME280;5176;42.622;25.386;2023-02-17T00:13:52;98109.88;;;2.26;80.20
9439;BME280;5176;42.622;25.386;2023-02-17T00:16:21;98111.50;;;2.32;78.69
9439;BME280;5176;42.622;25.386;2023-02-17T00:18:52;98102.31;;;2.14;78.61
9439;BME280;5176;42.622;25.386;2023-02-17T00:21:21;98124.84;;;2.09;79.60
9439;BME280;5176;42.622;25.386;2023-02-17T00:23:50;98112.03;;;2.01;80.29
9439;BME280;5176;42.622;25.386;2023-02-17T00:26:19;98111.16;;;2.02;81.64
9439;BME280;5176;42.622;25.386;2023-02-17T00:28:47;98103.47;;;1.96;82.22
9439;BME280;5176;42.622;25.386;2023-02-17T00:31:17;98096.50;;;2.00;82.06
9439;BME280;5176;42.622;25.386;2023-02-17T00:33:45;98099.09;;;2.01;82.01
9439;BME280;5176;42.622;25.386;2023-02-17T00:36:14;98092.41;;;1.88;81.75
9439;BME280;5176;42.622;25.386;2023-02-17T00:38:43;98095.16;;;1.77;81.23
9439;BME280;5176;42.622;25.386;2023-02-17T00:41:11;98080.56;;;1.73;81.75
9439;BME280;5176;42.622;25.386;2023-02-17T00:43:42;98085.59;;;1.82;81.83
9439;BME280;5176;42.622;25.386;2023-02-17T00:46:09;98073.50;;;1.84;81.21
9439;BME280;5176;42.622;25.386;2023-02-17T00:48:36;98082.06;;;1.88;81.36
9439;BME280;5176;42.622;25.386;2023-02-17T00:51:04;98043.50;;;1.74;80.65
9439;BME280;5176;42.622;25.386;2023-02-17T00:53:31;98045.88;;;1.86;79.73
9439;BME280;5176;42.622;25.386;2023-02-17T00:55:58;98047.63;;;1.86;80.68
9439;BME280;5176;42.622;25.386;2023-02-17T00:58:26;98041.53;;;1.90;81.15
9439;BME280;5176;42.622;25.386;2023-02-17T01:00:56;98045.03;;;1.87;82.13
9439;BME280;5176;42.622;25.386;2023-02-17T01:03:24;98040.72;;;1.88;82.69
9439;BME280;5176;42.622;25.386;2023-02-17T01:05:52;98034.56;;;1.94;81.79
9439;BME280;5176;42.622;25.386;2023-02-17T01:08:20;98039.66;;;1.98;81.18
9439;BME280;5176;42.622;25.386;2023-02-17T01:10:50;98024.09;;;2.00;81.41
9439;BME280;5176;42.622;25.386;2023-02-17T01:13:18;98014.53;;;2.05;80.96
9439;BME280;5176;42.622;25.386;2023-02-17T01:15:47;98021.50;;;2.03;79.76
9439;BME280;5176;42.622;25.386;2023-02-17T01:18:17;98013.84;;;1.97;80.34
9439;BME280;5176;42.622;25.386;2023-02-17T01:20:44;98018.09;;;1.99;80.07
9439;BME280;5176;42.622;25.386;2023-02-17T01:23:12;98013.97;;;1.89;80.84
9439;BME280;5176;42.622;25.386;2023-02-17T01:25:41;98017.44;;;1.88;81.23
9439;BME280;5176;42.622;25.386;2023-02-17T01:28:10;98017.53;;;1.82;80.70
9439;BME280;5176;42.622;25.386;2023-02-17T01:30:40;98010.66;;;1.81;80.90
9439;BME280;5176;42.622;25.386;2023-02-17T01:33:07;98011.66;;;1.72;80.56
9439;BME280;5176;42.622;25.386;2023-02-17T01:35:35;98013.44;;;1.69;81.07
9439;BME280;5176;42.622;25.386;2023-02-17T01:38:02;98004.09;;;1.61;82.38
9439;BME280;5176;42.622;25.386;2023-02-17T01:40:29;98003.22;;;1.61;81.79
9439;BME280;5176;42.622;25.386;2023-02-17T01:42:56;98004.16;;;1.57;80.96
9439;BME280;5176;42.622;25.386;2023-02-17T01:45:39;98012.88;;;1.50;80.86
9439;BME280;5176;42.622;25.386;2023-02-17T01:48:11;98012.16;;;1.42;81.51
9439;BME280;5176;42.622;25.386;2023-02-17T01:50:43;98009.91;;;1.17;82.03
9439;BME280;5176;42.622;25.386;2023-02-17T01:53:15;98007.28;;;1.19;84.05
9439;BME280;5176;42.622;25.386;2023-02-17T01:55:45;98011.50;;;1.26;83.75
9439;BME280;5176;42.622;25.386;2023-02-17T01:58:14;98009.03;;;1.18;83.07
9439;BME280;5176;42.622;25.386;2023-02-17T02:00:44;98005.56;;;1.21;82.74
9439;BME280;5176;42.622;25.386;2023-02-17T02:03:12;98004.63;;;1.25;82.89
9439;BME280;5176;42.622;25.386;2023-02-17T02:05:41;97991.78;;;1.20;83.07
9439;BME280;5176;42.622;25.386;2023-02-17T02:08:09;97973.94;;;1.03;82.99
9439;BME280;5176;42.622;25.386;2023-02-17T02:10:37;97974.75;;;1.07;83.39
9439;BME280;5176;42.622;25.386;2023-02-17T02:13:06;97995.25;;;1.21;83.57
9439;BME280;5176;42.622;25.386;2023-02-17T02:15:38;97986.53;;;1.25;83.39
9439;BME280;5176;42.622;25.386;2023-02-17T02:18:23;97987.41;;;1.25;82.47
9439;BME280;5176;42.622;25.386;2023-02-17T02:24:05;97990.91;;;1.23;82.46
9439;BME280;5176;42.622;25.386;2023-02-17T02:27:08;97988.25;;;1.26;82.55
9439;BME280;5176;42.622;25.386;2023-02-17T02:30:04;97977.97;;;1.23;83.86
9439;BME280;5176;42.622;25.386;2023-02-17T02:32:53;97979.75;;;1.21;83.38
9439;BME280;5176;42.622;25.386;2023-02-17T02:35:26;97982.41;;;1.13;84.77
9439;BME280;5176;42.622;25.386;2023-02-17T02:38:00;97982.53;;;1.05;84.67
9439;BME280;5176;42.622;25.386;2023-02-17T02:40:32;97987.66;;;1.08;84.31
9439;BME280;5176;42.622;25.386;2023-02-17T02:43:00;97965.44;;;0.97;84.80
9439;BME280;5176;42.622;25.386;2023-02-17T02:45:28;97975.63;;;1.07;84.98
9439;BME280;5176;42.622;25.386;2023-02-17T02:47:57;97959.41;;;0.98;84.05
9439;BME280;5176;42.622;25.386;2023-02-17T02:50:40;97974.88;;;1.01;85.13
9439;BME280;5176;42.622;25.386;2023-02-17T02:53:26;97961.09;;;0.99;84.70
9439;BME280;5176;42.622;25.386;2023-02-17T02:56:04;97972.16;;;1.08;84.31
9439;BME280;5176;42.622;25.386;2023-02-17T02:58:43;97965.38;;;1.00;84.13
9439;BME280;5176;42.622;25.386;2023-02-17T03:01:19;97974.00;;;0.99;83.55
9439;BME280;5176;42.622;25.386;2023-02-17T03:03:58;97965.53;;;0.91;83.80
9439;BME280;5176;42.622;25.386;2023-02-17T03:06:30;97973.31;;;0.86;85.06
9439;BME280;5176;42.622;25.386;2023-02-17T03:09:05;97963.16;;;0.75;85.77
9439;BME280;5176;42.622;25.386;2023-02-17T03:11:33;97974.31;;;0.77;85.08
9439;BME280;5176;42.622;25.386;2023-02-17T03:14:01;97974.47;;;0.65;85.85
9439;BME280;5176;42.622;25.386;2023-02-17T03:16:29;97970.25;;;0.58;86.32
9439;BME280;5176;42.622;25.386;2023-02-17T03:18:58;97969.22;;;0.71;87.09
9439;BME280;5176;42.622;25.386;2023-02-17T03:21:31;97968.34;;;0.74;85.84
9439;BME280;5176;42.622;25.386;2023-02-17T03:23:59;97962.22;;;0.81;85.34
9439;BME280;5176;42.622;25.386;2023-02-17T03:26:26;97962.16;;;0.87;85.71
9439;BME280;5176;42.622;25.386;2023-02-17T03:28:54;97959.66;;;0.79;86.34
9439;BME280;5176;42.622;25.386;2023-02-17T03:31:21;97969.97;;;0.79;87.34
9439;BME280;5176;42.622;25.386;2023-02-17T03:33:48;97963.94;;;0.82;88.09
9439;BME280;5176;42.622;25.386;2023-02-17T03:36:16;97962.09;;;0.90;87.65
9439;BME280;5176;42.622;25.386;2023-02-17T03:38:44;97971.59;;;0.87;86.62
9439;BME280;5176;42.622;25.386;2023-02-17T03:41:11;97965.56;;;0.86;87.16
9439;BME280;5176;42.622;25.386;2023-02-17T03:43:38;97950.94;;;0.88;87.11
9439;BME280;5176;42.622;25.386;2023-02-17T03:46:09;97977.56;;;0.92;87.21
9439;BME280;5176;42.622;25.386;2023-02-17T03:48:36;97966.63;;;0.71;87.14
9439;BME280;5176;42.622;25.386;2023-02-17T03:51:09;97975.47;;;0.53;87.97
9439;BME280;5176;42.622;25.386;2023-02-17T03:53:38;97964.22;;;0.59;88.85
9439;BME280;5176;42.622;25.386;2023-02-17T03:56:06;97964.09;;;0.67;88.62
9439;BME280;5176;42.622;25.386;2023-02-17T03:58:33;97919.63;;;0.49;88.61
9439;BME280;5176;42.622;25.386;2023-02-17T04:01:00;97966.56;;;0.77;87.36
9439;BME280;5176;42.622;25.386;2023-02-17T04:03:28;97949.34;;;0.78;86.98
9439;BME280;5176;42.622;25.386;2023-02-17T04:05:55;97960.56;;;0.75;86.37
9439;BME280;5176;42.622;25.386;2023-02-17T04:08:22;97934.13;;;0.58;87.30
9439;BME280;5176;42.622;25.386;2023-02-17T04:10:52;97943.53;;;0.64;87.25
9439;BME280;5176;42.622;25.386;2023-02-17T04:13:19;97953.13;;;0.54;87.02
9439;BME280;5176;42.622;25.386;2023-02-17T04:15:47;97955.63;;;0.59;86.49
9439;BME280;5176;42.622;25.386;2023-02-17T04:18:15;97966.94;;;0.48;87.06
9439;BME280;5176;42.622;25.386;2023-02-17T04:20:43;97949.75;;;0.47;87.42
9439;BME280;5176;42.622;25.386;2023-02-17T04:23:10;97953.31;;;0.37;86.83
9439;BME280;5176;42.622;25.386;2023-02-17T04:25:39;97955.97;;;0.30;87.90
9439;BME280;5176;42.622;25.386;2023-02-17T04:28:08;97943.16;;;0.23;89.22
9439;BME280;5176;42.622;25.386;2023-02-17T04:30:35;97950.81;;;0.31;88.46
9439;BME280;5176;42.622;25.386;2023-02-17T04:33:02;97954.22;;;0.33;88.63
9439;BME280;5176;42.622;25.386;2023-02-17T04:35:30;97943.16;;;0.23;89.02
9439;BME280;5176;42.622;25.386;2023-02-17T04:37:57;97965.69;;;0.08;89.73
9439;BME280;5176;42.622;25.386;2023-02-17T04:40:24;97961.28;;;0.17;91.67
9439;BME280;5176;42.622;25.386;2023-02-17T04:42:51;97968.91;;;0.28;91.87
9439;BME280;5176;42.622;25.386;2023-02-17T04:45:20;97956.72;;;0.39;91.58
9439;BME280;5176;42.622;25.386;2023-02-17T04:47:48;97960.88;;;0.51;90.53
9439;BME280;5176;42.622;25.386;2023-02-17T04:50:15;97947.19;;;0.44;90.92
9439;BME280;5176;42.622;25.386;2023-02-17T04:52:42;97963.50;;;0.46;90.72
9439;BME280;5176;42.622;25.386;2023-02-17T04:55:09;97954.91;;;0.47;91.81
9439;BME280;5176;42.622;25.386;2023-02-17T04:57:36;97949.75;;;0.47;92.42
9439;BME280;5176;42.622;25.386;2023-02-17T05:00:05;97961.78;;;0.48;91.94
9439;BME280;5176;42.622;25.386;2023-02-17T05:02:34;97953.13;;;0.54;92.37
9439;BME280;5176;42.622;25.386;2023-02-17T05:05:01;97952.94;;;0.66;92.85
9439;BME280;5176;42.622;25.386;2023-02-17T05:07:28;97959.69;;;0.76;90.75
9439;BME280;5176;42.622;25.386;2023-02-17T05:09:55;97955.38;;;0.77;90.32
9439;BME280;5176;42.622;25.386;2023-02-17T05:12:22;97963.91;;;0.84;88.54
9439;BME280;5176;42.622;25.386;2023-02-17T05:14:49;97966.59;;;0.76;88.45
9439;BME280;5176;42.622;25.386;2023-02-17T05:17:17;97954.56;;;0.75;88.97
9439;BME280;5176;42.622;25.386;2023-02-17T05:19:46;97973.41;;;0.80;88.64
9439;BME280;5176;42.622;25.386;2023-02-17T05:22:13;97976.19;;;0.65;87.98
9439;BME280;5176;42.622;25.386;2023-02-17T05:24:40;97970.09;;;0.70;88.79
9439;BME280;5176;42.622;25.386;2023-02-17T05:27:08;97975.22;;;0.75;88.59
9439;BME280;5176;42.622;25.386;2023-02-17T05:29:37;97977.75;;;0.78;89.04
9439;BME280;5176;42.622;25.386;2023-02-17T05:32:04;97946.03;;;0.70;89.30
9439;BME280;5176;42.622;25.386;2023-02-17T05:34:31;97965.56;;;0.88;88.52
9439;BME280;5176;42.622;25.386;2023-02-17T05:37:00;97923.81;;;0.58;88.59
9439;BME280;5176;42.622;25.386;2023-02-17T05:39:27;97971.50;;;0.93;88.73
9439;BME280;5176;42.622;25.386;2023-02-17T05:41:56;97975.72;;;1.00;87.98
9439;BME280;5176;42.622;25.386;2023-02-17T05:44:23;97985.94;;;1.06;87.43
9439;BME280;5176;42.622;25.386;2023-02-17T05:46:51;97984.31;;;1.02;87.02
9439;BME280;5176;42.622;25.386;2023-02-17T05:49:20;97967.88;;;1.07;86.95
9439;BME280;5176;42.622;25.386;2023-02-17T05:51:47;97945.78;;;0.87;86.77
9439;BME280;5176;42.622;25.386;2023-02-17T05:54:16;97975.69;;;1.03;86.42
9439;BME280;5176;42.622;25.386;2023-02-17T05:56:43;97978.09;;;1.14;86.16
9439;BME280;5176;42.622;25.386;2023-02-17T05:59:10;97987.50;;;1.18;84.86
9439;BME280;5176;42.622;25.386;2023-02-17T06:01:37;97982.25;;;1.24;85.28
9439;BME280;5176;42.622;25.386;2023-02-17T06:04:04;97990.72;;;1.33;84.92
9439;BME280;5176;42.622;25.386;2023-02-17T06:06:32;98001.03;;;1.35;85.34
9439;BME280;5176;42.622;25.386;2023-02-17T06:08:59;97989.78;;;1.39;86.04
9439;BME280;5176;42.622;25.386;2023-02-17T06:11:28;98008.72;;;1.38;86.00
9439;BME280;5176;42.622;25.386;2023-02-17T06:13:55;97991.34;;;1.49;86.38
9439;BME280;5176;42.622;25.386;2023-02-17T06:16:22;97993.75;;;1.61;85.08
9439;BME280;5176;42.622;25.386;2023-02-17T06:18:49;97992.66;;;1.75;84.63
9439;BME280;5176;42.622;25.386;2023-02-17T06:21:16;97987.41;;;1.79;84.43
9439;BME280;5176;42.622;25.386;2023-02-17T06:23:44;97993.28;;;1.89;83.84
9439;BME280;5176;42.622;25.386;2023-02-17T06:26:13;97972.63;;;1.86;84.13
9439;BME280;5176;42.622;25.386;2023-02-17T06:28:42;97890.63;;;1.46;83.76
9439;BME280;5176;42.622;25.386;2023-02-17T06:31:09;98002.06;;;2.28;82.93
9439;BME280;5176;42.622;25.386;2023-02-17T06:33:36;97974.47;;;2.29;82.40
9439;BME280;5176;42.622;25.386;2023-02-17T06:36:04;98000.81;;;2.49;81.31
9439;BME280;5176;42.622;25.386;2023-02-17T06:38:33;98012.16;;;2.42;82.09
9439;BME280;5176;42.622;25.386;2023-02-17T06:41:00;98016.53;;;2.38;81.79
9439;BME280;5176;42.622;25.386;2023-02-17T06:43:28;98012.47;;;2.70;82.19
9439;BME280;5176;42.622;25.386;2023-02-17T06:45:57;97990.81;;;2.72;81.72
9439;BME280;5176;42.622;25.386;2023-02-17T06:48:24;98014.00;;;2.79;81.63
9439;BME280;5176;42.622;25.386;2023-02-17T06:50:51;97999.78;;;2.98;81.87
9439;BME280;5176;42.622;25.386;2023-02-17T06:53:18;98000.16;;;3.20;80.35
9439;BME280;5176;42.622;25.386;2023-02-17T06:55:45;98009.13;;;3.44;79.45
9439;BME280;5176;42.622;25.386;2023-02-17T06:58:13;98004.47;;;3.58;78.15
9439;BME280;5176;42.622;25.386;2023-02-17T07:00:40;98001.63;;;3.69;78.11
9439;BME280;5176;42.622;25.386;2023-02-17T07:03:08;98004.69;;;3.85;76.82
9439;BME280;5176;42.622;25.386;2023-02-17T07:05:36;97972.06;;;3.76;76.63
9439;BME280;5176;42.622;25.386;2023-02-17T07:08:15;98007.75;;;4.02;76.15
9439;BME280;5176;42.622;25.386;2023-02-17T07:10:43;97998.66;;;4.18;75.99
9439;BME280;5176;42.622;25.386;2023-02-17T07:13:10;98004.25;;;4.35;75.36
9439;BME280;5176;42.622;25.386;2023-02-17T07:15:37;98007.44;;;4.45;75.02
9439;BME280;5176;42.622;25.386;2023-02-17T07:18:04;98007.06;;;4.59;74.33
9439;BME280;5176;42.622;25.386;2023-02-17T07:20:33;98013.72;;;4.69;74.70
9439;BME280;5176;42.622;25.386;2023-02-17T07:23:01;98017.53;;;4.87;74.86
9439;BME280;5176;42.622;25.386;2023-02-17T07:25:29;98008.81;;;4.89;75.30
9439;BME280;5176;42.622;25.386;2023-02-17T07:27:56;98013.00;;;4.93;75.57
9439;BME280;5176;42.622;25.386;2023-02-17T07:30:23;98010.78;;;5.11;74.39
9439;BME280;5176;42.622;25.386;2023-02-17T07:32:50;98004.22;;;5.27;74.32
9439;BME280;5176;42.622;25.386;2023-02-17T07:35:17;97974.81;;;5.25;74.29
9439;BME280;5176;42.622;25.386;2023-02-17T07:37:46;98011.50;;;5.44;72.92
9439;BME280;5176;42.622;25.386;2023-02-17T07:40:13;98018.19;;;5.79;73.48
9439;BME280;5176;42.622;25.386;2023-02-17T07:42:40;98006.56;;;6.17;72.35
9439;BME280;5176;42.622;25.386;2023-02-17T07:45:08;98007.84;;;6.55;69.33
9439;BME280;5176;42.622;25.386;2023-02-17T07:47:35;98005.38;;;6.76;66.81
9439;BME280;5176;42.622;25.386;2023-02-17T07:50:02;98002.97;;;6.93;65.13
9439;BME280;5176;42.622;25.386;2023-02-17T07:52:29;98010.59;;;7.21;65.25
9439;BME280;5176;42.622;25.386;2023-02-17T07:54:58;98008.56;;;7.29;62.71
9439;BME280;5176;42.622;25.386;2023-02-17T07:57:27;98000.16;;;7.45;62.71
9439;BME280;5176;42.622;25.386;2023-02-17T07:59:55;97999.97;;;7.71;62.14
9439;BME280;5176;42.622;25.386;2023-02-17T08:02:23;97997.03;;;7.79;62.27
9439;BME280;5176;42.622;25.386;2023-02-17T08:04:50;98004.78;;;8.02;62.34
9439;BME280;5176;42.622;25.386;2023-02-17T08:07:18;98005.16;;;8.35;61.22
9439;BME280;5176;42.622;25.386;2023-02-17T08:09:46;97998.44;;;8.50;60.29
9439;BME280;5176;42.622;25.386;2023-02-17T08:12:43;98001.03;;;8.89;59.68
9439;BME280;5176;42.622;25.386;2023-02-17T08:15:31;97985.34;;;8.89;57.52
9439;BME280;5176;42.622;25.386;2023-02-17T08:18:01;98001.28;;;9.22;57.59
9439;BME280;5176;42.622;25.386;2023-02-17T08:20:31;97999.50;;;9.42;56.92
9439;BME280;5176;42.622;25.386;2023-02-17T08:22:58;97997.94;;;9.57;56.63
9439;BME280;5176;42.622;25.386;2023-02-17T08:25:30;98004.84;;;9.76;55.80
9439;BME280;5176;42.622;25.386;2023-02-17T08:27:59;97996.00;;;9.96;54.92
9439;BME280;5176;42.622;25.386;2023-02-17T08:30:26;98003.06;;;10.30;52.91
9439;BME280;5176;42.622;25.386;2023-02-17T08:32:54;97994.50;;;10.44;51.43
9439;BME280;5176;42.622;25.386;2023-02-17T08:35:21;97997.53;;;10.70;50.75
9439;BME280;5176;42.622;25.386;2023-02-17T08:37:48;98003.63;;;11.03;49.62
9439;BME280;5176;42.622;25.386;2023-02-17T08:40:17;98001.56;;;11.26;49.76
9439;BME280;5176;42.622;25.386;2023-02-17T08:42:44;97990.63;;;11.49;48.64
9439;BME280;5176;42.622;25.386;2023-02-17T08:45:14;97987.75;;;11.54;47.64
9439;BME280;5176;42.622;25.386;2023-02-17T08:47:41;97994.75;;;11.69;48.12
9439;BME280;5176;42.622;25.386;2023-02-17T08:50:10;97969.53;;;11.82;47.35
9439;BME280;5176;42.622;25.386;2023-02-17T08:52:41;97996.78;;;11.95;47.31
9439;BME280;5176;42.622;25.386;2023-02-17T08:55:09;97993.09;;;12.14;46.14
9439;BME280;5176;42.622;25.386;2023-02-17T08:57:36;97986.16;;;12.13;45.80
9439;BME280;5176;42.622;25.386;2023-02-17T09:00:06;97995.81;;;12.42;45.44
9439;BME280;5176;42.622;25.386;2023-02-17T09:02:36;97987.56;;;12.48;44.29
9439;BME280;5176;42.622;25.386;2023-02-17T09:05:04;97999.22;;;12.59;44.20
9439;BME280;5176;42.622;25.386;2023-02-17T09:07:32;97988.72;;;12.73;44.59
9439;BME280;5176;42.622;25.386;2023-02-17T09:10:00;97958.84;;;12.60;44.19
9439;BME280;5176;42.622;25.386;2023-02-17T09:12:27;97994.81;;;13.16;44.41
9439;BME280;5176;42.622;25.386;2023-02-17T09:14:55;97989.44;;;13.46;42.42
9439;BME280;5176;42.622;25.386;2023-02-17T09:17:22;97980.94;;;13.55;42.47
9439;BME280;5176;42.622;25.386;2023-02-17T09:19:51;97984.66;;;13.80;42.11
9439;BME280;5176;42.622;25.386;2023-02-17T09:22:20;97976.69;;;13.94;42.08
9439;BME280;5176;42.622;25.386;2023-02-17T09:24:47;97981.09;;;14.21;40.75
9439;BME280;5176;42.622;25.386;2023-02-17T09:27:14;97974.25;;;14.43;40.74
9439;BME280;5176;42.622;25.386;2023-02-17T09:29:41;97940.78;;;14.44;39.98
9439;BME280;5176;42.622;25.386;2023-02-17T09:32:08;97958.03;;;14.75;38.52
9439;BME280;5176;42.622;25.386;2023-02-17T09:34:37;97934.59;;;14.83;37.53
9439;BME280;5176;42.622;25.386;2023-02-17T09:37:09;97955.56;;;15.10;36.48
9439;BME280;5176;42.622;25.386;2023-02-17T09:39:37;97960.81;;;15.23;37.41
9439;BME280;5176;42.622;25.386;2023-02-17T09:42:04;97960.59;;;15.39;36.77
9439;BME280;5176;42.622;25.386;2023-02-17T09:44:36;97942.91;;;15.52;35.93
9439;BME280;5176;42.622;25.386;2023-02-17T09:47:09;97928.63;;;15.54;35.21
9439;BME280;5176;42.622;25.386;2023-02-17T09:49:41;97956.25;;;15.74;35.94
9439;BME280;5176;42.622;25.386;2023-02-17T09:52:15;97944.84;;;15.74;35.42
9439;BME280;5176;42.622;25.386;2023-02-17T09:54:50;97947.69;;;15.95;36.22
9439;BME280;5176;42.622;25.386;2023-02-17T09:57:20;97939.38;;;16.23;36.61
9439;BME280;5176;42.622;25.386;2023-02-17T09:59:53;97947.84;;;16.40;35.04
9439;BME280;5176;42.622;25.386;2023-02-17T10:02:26;97943.06;;;16.56;34.78
9439;BME280;5176;42.622;25.386;2023-02-17T10:04:59;97945.28;;;16.73;34.43
9439;BME280;5176;42.622;25.386;2023-02-17T10:07:33;97931.69;;;16.78;34.14
9439;BME280;5176;42.622;25.386;2023-02-17T10:10:05;97909.28;;;16.59;33.50
9439;BME280;5176;42.622;25.386;2023-02-17T10:12:37;97921.09;;;16.78;32.11
9439;BME280;5176;42.622;25.386;2023-02-17T10:15:09;97924.22;;;16.94;33.68
9439;BME280;5176;42.622;25.386;2023-02-17T10:17:44;97922.56;;;16.93;33.12
9439;BME280;5176;42.622;25.386;2023-02-17T10:20:15;97920.13;;;17.12;33.29
9439;BME280;5176;42.622;25.386;2023-02-17T10:22:49;97915.91;;;17.32;32.12
9439;BME280;5176;42.622;25.386;2023-02-17T10:25:24;97922.47;;;17.38;33.28
9439;BME280;5176;42.622;25.386;2023-02-17T10:28:07;97917.53;;;17.44;32.23
9439;BME280;5176;42.622;25.386;2023-02-17T10:30:41;97838.88;;;17.02;30.73
9439;BME280;5176;42.622;25.386;2023-02-17T10:33:13;97912.31;;;17.65;32.33
9439;BME280;5176;42.622;25.386;2023-02-17T10:35:49;97915.41;;;17.82;31.59
9439;BME280;5176;42.622;25.386;2023-02-17T10:38:31;97911.47;;;17.97;30.54
9439;BME280;5176;42.622;25.386;2023-02-17T10:41:02;97904.50;;;18.17;29.25
9439;BME280;5176;42.622;25.386;2023-02-17T10:43:32;97900.81;;;18.29;28.73
9439;BME280;5176;42.622;25.386;2023-02-17T10:46:03;97902.97;;;18.35;29.12
9439;BME280;5176;42.622;25.386;2023-02-17T10:48:34;97894.66;;;18.49;28.72
9439;BME280;5176;42.622;25.386;2023-02-17T10:51:04;97877.28;;;18.45;28.16
9439;BME280;5176;42.622;25.386;2023-02-17T10:53:36;97897.31;;;18.70;28.74
9439;BME280;5176;42.622;25.386;2023-02-17T10:56:08;97840.69;;;18.39;28.17
9439;BME280;5176;42.622;25.386;2023-02-17T10:58:42;97879.16;;;18.75;27.27
9439;BME280;5176;42.622;25.386;2023-02-17T11:01:12;97870.13;;;18.88;26.79
9439;BME280;5176;42.622;25.386;2023-02-17T11:03:40;97866.75;;;18.86;25.94
9439;BME280;5176;42.622;25.386;2023-02-17T11:06:16;97868.31;;;18.88;26.11
9439;BME280;5176;42.622;25.386;2023-02-17T11:08:49;97872.28;;;19.03;26.43
9439;BME280;5176;42.622;25.386;2023-02-17T11:11:20;97865.19;;;19.14;26.41
9439;BME280;5176;42.622;25.386;2023-02-17T11:14:00;97860.31;;;19.38;26.24
9439;BME280;5176;42.622;25.386;2023-02-17T11:16:34;97856.56;;;19.41;25.26
9439;BME280;5176;42.622;25.386;2023-02-17T11:19:03;97858.81;;;19.55;25.99
9439;BME280;5176;42.622;25.386;2023-02-17T11:21:32;97832.22;;;19.55;26.34
9439;BME280;5176;42.622;25.386;2023-02-17T11:24:03;97852.25;;;19.78;26.79
9439;BME280;5176;42.622;25.386;2023-02-17T11:26:33;97863.88;;;19.97;25.39
9439;BME280;5176;42.622;25.386;2023-02-17T11:29:08;97860.63;;;20.12;24.98
9439;BME280;5176;42.622;25.386;2023-02-17T11:31:37;97859.25;;;20.08;24.37
9439;BME280;5176;42.622;25.386;2023-02-17T11:34:13;97857.69;;;20.06;23.01
9439;BME280;5176;42.622;25.386;2023-02-17T11:36:43;97850.66;;;20.24;23.34
9439;BME280;5176;42.622;25.386;2023-02-17T11:39:20;97854.53;;;20.39;23.28
9439;BME280;5176;42.622;25.386;2023-02-17T11:41:47;97774.16;;;19.79;22.84
9439;BME280;5176;42.622;25.386;2023-02-17T11:44:22;97853.69;;;20.39;23.21
9439;BME280;5176;42.622;25.386;2023-02-17T11:46:59;97817.31;;;20.30;22.91
9439;BME280;5176;42.622;25.386;2023-02-17T11:52:55;97806.69;;;20.20;22.05
9439;BME280;5176;42.622;25.386;2023-02-17T11:55:37;97824.63;;;20.18;22.39
9439;BME280;5176;42.622;25.386;2023-02-17T11:58:19;97821.69;;;20.21;22.94
9439;BME280;5176;42.622;25.386;2023-02-17T12:00:52;97825.25;;;20.39;22.09
9439;BME280;5176;42.622;25.386;2023-02-17T12:03:49;97823.88;;;20.35;21.78
9439;BME280;5176;42.622;25.386;2023-02-17T12:06:23;97817.19;;;20.22;21.89
9439;BME280;5176;42.622;25.386;2023-02-17T12:09:04;97821.72;;;20.02;22.20
9439;BME280;5176;42.622;25.386;2023-02-17T12:11:44;97820.47;;;19.96;22.24
9439;BME280;5176;42.622;25.386;2023-02-17T12:14:30;97787.88;;;19.75;22.18
9439;BME280;5176;42.622;25.386;2023-02-17T12:17:02;97805.22;;;19.79;22.10
9439;BME280;5176;42.622;25.386;2023-02-17T12:19:39;97804.09;;;19.72;22.55
9439;BME280;5176;42.622;25.386;2023-02-17T12:22:17;97793.88;;;19.48;22.12
9439;BME280;5176;42.622;25.386;2023-02-17T12:25:10;97806.03;;;19.50;22.41
9439;BME280;5176;42.622;25.386;2023-02-17T12:27:50;97806.03;;;19.31;22.22
9439;BME280;5176;42.622;25.386;2023-02-17T12:30:29;97818.72;;;19.08;22.74
9439;BME280;5176;42.622;25.386;2023-02-17T12:33:13;97805.28;;;19.00;22.25
9439;BME280;5176;42.622;25.386;2023-02-17T12:35:48;97804.47;;;18.99;22.80
9439;BME280;5176;42.622;25.386;2023-02-17T12:38:20;97805.56;;;18.97;22.66
9439;BME280;5176;42.622;25.386;2023-02-17T12:40:52;97802.94;;;19.16;22.66
9439;BME280;5176;42.622;25.386;2023-02-17T12:43:25;97794.56;;;19.21;24.18
9439;BME280;5176;42.622;25.386;2023-02-17T12:45:57;97813.16;;;19.21;23.35
9439;BME280;5176;42.622;25.386;2023-02-17T12:48:28;97799.44;;;19.06;24.46
9439;BME280;5176;42.622;25.386;2023-02-17T12:51:02;97816.78;;;19.10;24.14
9439;BME280;5176;42.622;25.386;2023-02-17T12:53:39;97808.25;;;19.07;24.32
9439;BME280;5176;42.622;25.386;2023-02-17T12:56:32;97772.72;;;19.17;24.13
9439;BME280;5176;42.622;25.386;2023-02-17T12:59:11;97794.97;;;19.36;23.85
9439;BME280;5176;42.622;25.386;2023-02-17T13:01:47;97802.00;;;19.46;23.93
9439;BME280;5176;42.622;25.386;2023-02-17T13:04:17;97807.59;;;19.53;24.28
9439;BME280;5176;42.622;25.386;2023-02-17T13:06:51;97806.16;;;19.29;23.65
9439;BME280;5176;42.622;25.386;2023-02-17T13:09:26;97793.97;;;19.08;24.28
9439;BME280;5176;42.622;25.386;2023-02-17T13:12:14;97788.34;;;18.91;24.88
9439;BME280;5176;42.622;25.386;2023-02-17T13:14:45;97802.94;;;19.07;24.67
9439;BME280;5176;42.622;25.386;2023-02-17T13:17:22;97793.16;;;19.07;24.76
9439;BME280;5176;42.622;25.386;2023-02-17T13:20:02;97782.38;;;19.09;25.24
9439;BME280;5176;42.622;25.386;2023-02-17T13:22:29;97796.34;;;19.11;24.60
9439;BME280;5176;42.622;25.386;2023-02-17T13:24:58;97775.59;;;18.85;24.79
9439;BME280;5176;42.622;25.386;2023-02-17T13:27:31;97796.13;;;18.73;24.62
9439;BME280;5176;42.622;25.386;2023-02-17T13:30:03;97800.63;;;18.73;24.53
9439;BME280;5176;42.622;25.386;2023-02-17T13:32:33;97796.19;;;18.62;24.44
9439;BME280;5176;42.622;25.386;2023-02-17T13:35:02;97815.25;;;18.67;24.67
9439;BME280;5176;42.622;25.386;2023-02-17T13:37:40;97800.88;;;18.70;25.47
9439;BME280;5176;42.622;25.386;2023-02-17T13:40:41;97801.47;;;18.83;24.84
9439;BME280;5176;42.622;25.386;2023-02-17T13:43:13;97808.75;;;18.91;24.89